sensor_id;sensor_type;location;lat;lon;timestamp;P1;durP1;ratioP1;P2;durP2;ratioP2
3993;SDS011;2011;48.238;13.948;2023-08-17T00:01:08;20.03;;;11.20;;
3993;SDS011;2011;48.238;13.948;2023-08-17T00:03:35;17.27;;;11.20;;
3993;SDS011;2011;48.238;13.948;2023-08-17T00:06:02;21.10;;;11.00;;
3993;SDS011;2011;48.238;13.948;2023-08-17T00:08:29;18.97;;;12.90;;
3993;SDS011;2011;48.238;13.948;2023-08-17T00:10:57;19.30;;;11.73;;
3993;SDS011;2011;48.238;13.948;2023-08-17T00:13:25;17.90;;;12.33;;
3993;SDS011;2011;48.238;13.948;2023-08-17T00:15:52;17.90;;;12.57;;
3993;SDS011;2011;48.238;13.948;2023-08-17T00:18:19;16.53;;;11.27;;
3993;SDS011;2011;48.238;13.948;2023-08-17T00:20:46;18.30;;;13.57;;
3993;SDS011;2011;48.238;13.948;2023-08-17T00:23:14;22.43;;;12.97;;
3993;SDS011;2011;48.238;13.948;2023-08-17T00:25:41;17.47;;;12.47;;
3993;SDS011;2011;48.238;13.948;2023-08-17T00:28:08;22.47;;;13.40;;
3993;SDS011;2011;48.238;13.948;2023-08-17T00:30:36;15.50;;;10.80;;
3993;SDS011;2011;48.238;13.948;2023-08-17T00:33:03;18.33;;;12.37;;
3993;SDS011;2011;48.238;13.948;2023-08-17T00:35:31;30.90;;;13.43;;
3993;SDS011;2011;48.238;13.948;2023-08-17T00:37:59;20.93;;;12.60;;
3993;SDS011;2011;48.238;13.948;2023-08-17T00:40:26;21.63;;;12.70;;
3993;SDS011;2011;48.238;13.948;2023-08-17T00:42:53;19.60;;;13.73;;
3993;SDS011;2011;48.238;13.948;2023-08-17T00:45:21;20.17;;;12.77;;
3993;SDS011;2011;48.238;13.948;2023-08-17T00:47:50;18.40;;;11.73;;
3993;SDS011;2011;48.238;13.948;2023-08-17T00:50:17;18.50;;;13.20;;
3993;SDS011;2011;48.238;13.948;2023-08-17T00:52:44;35.43;;;12.70;;
3993;SDS011;2011;48.238;13.948;2023-08-17T00:55:11;23.50;;;11.63;;
3993;SDS011;2011;48.238;13.948;2023-08-17T00:57:38;23.57;;;12.10;;
3993;SDS011;2011;48.238;13.948;2023-08-17T01:00:07;24.43;;;12.87;;
3993;SDS011;2011;48.238;13.948;2023-08-17T01:02:36;23.83;;;14.57;;
3993;SDS011;2011;48.238;13.948;2023-08-17T01:05:05;16.73;;;11.37;;
3993;SDS011;2011;48.238;13.948;2023-08-17T01:07:33;19.80;;;12.50;;
3993;SDS011;2011;48.238;13.948;2023-08-17T01:10:00;26.73;;;13.13;;
3993;SDS011;2011;48.238;13.948;2023-08-17T01:12:29;22.63;;;13.70;;
3993;SDS011;2011;48.238;13.948;2023-08-17T01:15:00;17.53;;;11.73;;
3993;SDS011;2011;48.238;13.948;2023-08-17T01:17:33;25.70;;;13.70;;
3993;SDS011;2011;48.238;13.948;2023-08-17T01:20:04;22.07;;;13.57;;
3993;SDS011;2011;48.238;13.948;2023-08-17T01:22:34;26.37;;;11.93;;
3993;SDS011;2011;48.238;13.948;2023-08-17T01:25:05;21.93;;;13.50;;
3993;SDS011;2011;48.238;13.948;2023-08-17T01:27:36;18.40;;;12.73;;
3993;SDS011;2011;48.238;13.948;2023-08-17T01:30:06;19.93;;;12.20;;
3993;SDS011;2011;48.238;13.948;2023-08-17T01:32:36;19.50;;;11.40;;
3993;SDS011;2011;48.238;13.948;2023-08-17T01:35:09;20.00;;;12.57;;
3993;SDS011;2011;48.238;13.948;2023-08-17T01:37:42;16.77;;;11.03;;
3993;SDS011;2011;48.238;13.948;2023-08-17T01:40:11;21.90;;;11.90;;
3993;SDS011;2011;48.238;13.948;2023-08-17T01:42:41;16.47;;;12.60;;
3993;SDS011;2011;48.238;13.948;2023-08-17T01:45:09;28.97;;;13.13;;
3993;SDS011;2011;48.238;13.948;2023-08-17T01:47:37;21.03;;;11.80;;
3993;SDS011;2011;48.238;13.948;2023-08-17T01:50:04;36.67;;;14.43;;
3993;SDS011;2011;48.238;13.948;2023-08-17T01:52:32;23.20;;;16.30;;
3993;SDS011;2011;48.238;13.948;2023-08-17T01:54:59;28.13;;;15.43;;
3993;SDS011;2011;48.238;13.948;2023-08-17T01:57:27;23.47;;;13.77;;
3993;SDS011;2011;48.238;13.948;2023-08-17T01:59:54;25.40;;;15.30;;
3993;SDS011;2011;48.238;13.948;2023-08-17T02:02:21;20.23;;;14.53;;
3993;SDS011;2011;48.238;13.948;2023-08-17T02:04:48;30.53;;;13.87;;
3993;SDS011;2011;48.238;13.948;2023-08-17T02:07:15;24.57;;;14.50;;
3993;SDS011;2011;48.238;13.948;2023-08-17T02:09:42;22.40;;;15.67;;
3993;SDS011;2011;48.238;13.948;2023-08-17T02:12:09;20.27;;;14.57;;
3993;SDS011;2011;48.238;13.948;2023-08-17T02:14:38;18.50;;;13.23;;
3993;SDS011;2011;48.238;13.948;2023-08-17T02:17:05;21.53;;;16.00;;
3993;SDS011;2011;48.238;13.948;2023-08-17T02:19:32;18.10;;;13.83;;
3993;SDS011;2011;48.238;13.948;2023-08-17T02:21:59;33.70;;;17.07;;
3993;SDS011;2011;48.238;13.948;2023-08-17T02:24:26;21.07;;;14.10;;
3993;SDS011;2011;48.238;13.948;2023-08-17T02:26:53;23.73;;;14.57;;
3993;SDS011;2011;48.238;13.948;2023-08-17T02:29:20;30.37;;;16.50;;
3993;SDS011;2011;48.238;13.948;2023-08-17T02:31:48;20.27;;;13.50;;
3993;SDS011;2011;48.238;13.948;2023-08-17T02:34:15;17.37;;;13.20;;
3993;SDS011;2011;48.238;13.948;2023-08-17T02:36:42;25.80;;;13.80;;
3993;SDS011;2011;48.238;13.948;2023-08-17T02:39:09;38.63;;;16.80;;
3993;SDS011;2011;48.238;13.948;2023-08-17T02:41:36;18.37;;;13.83;;
3993;SDS011;2011;48.238;13.948;2023-08-17T02:44:04;22.83;;;13.40;;
3993;SDS011;2011;48.238;13.948;2023-08-17T02:46:31;23.57;;;17.97;;
3993;SDS011;2011;48.238;13.948;2023-08-17T02:48:59;21.77;;;14.93;;
3993;SDS011;2011;48.238;13.948;2023-08-17T02:51:26;17.63;;;12.50;;
3993;SDS011;2011;48.238;13.948;2023-08-17T02:53:53;23.57;;;14.07;;
3993;SDS011;2011;48.238;13.948;2023-08-17T02:56:20;21.60;;;14.50;;
3993;SDS011;2011;48.238;13.948;2023-08-17T02:58:47;18.60;;;13.77;;
3993;SDS011;2011;48.238;13.948;2023-08-17T03:01:15;22.90;;;15.10;;
3993;SDS011;2011;48.238;13.948;2023-08-17T03:03:42;28.50;;;16.90;;
3993;SDS011;2011;48.238;13.948;2023-08-17T03:06:10;22.33;;;17.13;;
3993;SDS011;2011;48.238;13.948;2023-08-17T03:08:37;27.23;;;13.77;;
3993;SDS011;2011;48.238;13.948;2023-08-17T03:11:04;18.60;;;14.30;;
3993;SDS011;2011;48.238;13.948;2023-08-17T03:13:32;31.47;;;15.00;;
3993;SDS011;2011;48.238;13.948;2023-08-17T03:15:59;29.87;;;14.57;;
3993;SDS011;2011;48.238;13.948;2023-08-17T03:18:26;20.43;;;14.80;;
3993;SDS011;2011;48.238;13.948;2023-08-17T03:20:53;22.63;;;14.27;;
3993;SDS011;2011;48.238;13.948;2023-08-17T03:23:22;27.90;;;14.50;;
3993;SDS011;2011;48.238;13.948;2023-08-17T03:25:51;20.83;;;15.00;;
3993;SDS011;2011;48.238;13.948;2023-08-17T03:28:18;24.70;;;18.40;;
3993;SDS011;2011;48.238;13.948;2023-08-17T03:30:45;26.07;;;15.27;;
3993;SDS011;2011;48.238;13.948;2023-08-17T03:33:12;21.80;;;15.80;;
3993;SDS011;2011;48.238;13.948;2023-08-17T03:35:39;19.83;;;15.63;;
3993;SDS011;2011;48.238;13.948;2023-08-17T03:38:06;25.63;;;16.80;;
3993;SDS011;2011;48.238;13.948;2023-08-17T03:40:34;22.77;;;14.63;;
3993;SDS011;2011;48.238;13.948;2023-08-17T03:43:01;20.80;;;14.40;;
3993;SDS011;2011;48.238;13.948;2023-08-17T03:45:28;24.30;;;14.90;;
3993;SDS011;2011;48.238;13.948;2023-08-17T03:47:56;20.53;;;14.40;;
3993;SDS011;2011;48.238;13.948;2023-08-17T03:50:25;21.90;;;15.30;;
3993;SDS011;2011;48.238;13.948;2023-08-17T03:52:52;23.37;;;16.07;;
3993;SDS011;2011;48.238;13.948;2023-08-17T03:55:19;19.07;;;14.50;;
3993;SDS011;2011;48.238;13.948;2023-08-17T03:57:47;21.47;;;14.93;;
3993;SDS011;2011;48.238;13.948;2023-08-17T04:00:14;24.97;;;15.80;;
3993;SDS011;2011;48.238;13.948;2023-08-17T04:02:42;23.03;;;15.60;;
3993;SDS011;2011;48.238;13.948;2023-08-17T04:05:09;26.57;;;17.27;;
3993;SDS011;2011;48.238;13.948;2023-08-17T04:07:36;20.03;;;16.37;;
3993;SDS011;2011;48.238;13.948;2023-08-17T04:10:05;18.63;;;14.37;;
3993;SDS011;2011;48.238;13.948;2023-08-17T04:12:32;24.30;;;15.87;;
3993;SDS011;2011;48.238;13.948;2023-08-17T04:15:00;24.00;;;17.57;;
3993;SDS011;2011;48.238;13.948;2023-08-17T04:17:28;24.73;;;15.40;;
3993;SDS011;2011;48.238;13.948;2023-08-17T04:19:55;21.47;;;15.70;;
3993;SDS011;2011;48.238;13.948;2023-08-17T04:22:22;19.80;;;14.77;;
3993;SDS011;2011;48.238;13.948;2023-08-17T04:24:49;19.43;;;15.80;;
3993;SDS011;2011;48.238;13.948;2023-08-17T04:27:16;27.40;;;16.47;;
3993;SDS011;2011;48.238;13.948;2023-08-17T04:29:43;22.47;;;15.70;;
3993;SDS011;2011;48.238;13.948;2023-08-17T04:32:14;27.27;;;18.37;;
3993;SDS011;2011;48.238;13.948;2023-08-17T04:34:41;22.50;;;16.40;;
3993;SDS011;2011;48.238;13.948;2023-08-17T04:37:08;18.83;;;14.60;;
3993;SDS011;2011;48.238;13.948;2023-08-17T04:39:36;18.53;;;14.77;;
3993;SDS011;2011;48.238;13.948;2023-08-17T04:42:03;18.20;;;14.17;;
3993;SDS011;2011;48.238;13.948;2023-08-17T04:44:30;23.60;;;17.00;;
3993;SDS011;2011;48.238;13.948;2023-08-17T04:46:57;21.83;;;16.47;;
3993;SDS011;2011;48.238;13.948;2023-08-17T04:49:26;20.00;;;15.73;;
3993;SDS011;2011;48.238;13.948;2023-08-17T04:51:53;28.90;;;15.80;;
3993;SDS011;2011;48.238;13.948;2023-08-17T04:54:20;25.30;;;16.50;;
3993;SDS011;2011;48.238;13.948;2023-08-17T04:56:47;28.00;;;15.60;;
3993;SDS011;2011;48.238;13.948;2023-08-17T04:59:14;19.90;;;14.60;;
3993;SDS011;2011;48.238;13.948;2023-08-17T05:01:41;22.43;;;16.63;;
3993;SDS011;2011;48.238;13.948;2023-08-17T05:04:08;24.10;;;15.57;;
3993;SDS011;2011;48.238;13.948;2023-08-17T05:06:37;21.13;;;15.83;;
3993;SDS011;2011;48.238;13.948;2023-08-17T05:09:04;17.90;;;14.87;;
3993;SDS011;2011;48.238;13.948;2023-08-17T05:11:31;17.90;;;14.70;;
3993;SDS011;2011;48.238;13.948;2023-08-17T05:13:58;21.60;;;14.40;;
3993;SDS011;2011;48.238;13.948;2023-08-17T05:16:25;25.40;;;13.90;;
3993;SDS011;2011;48.238;13.948;2023-08-17T05:18:52;19.40;;;15.00;;
3993;SDS011;2011;48.238;13.948;2023-08-17T05:21:19;23.13;;;14.40;;
3993;SDS011;2011;48.238;13.948;2023-08-17T05:23:48;22.37;;;13.90;;
3993;SDS011;2011;48.238;13.948;2023-08-17T05:26:15;20.37;;;13.33;;
3993;SDS011;2011;48.238;13.948;2023-08-17T05:28:42;19.60;;;14.57;;
3993;SDS011;2011;48.238;13.948;2023-08-17T05:31:10;20.83;;;14.53;;
3993;SDS011;2011;48.238;13.948;2023-08-17T05:33:37;19.07;;;13.67;;
3993;SDS011;2011;48.238;13.948;2023-08-17T05:36:06;17.80;;;14.33;;
3993;SDS011;2011;48.238;13.948;2023-08-17T05:38:33;22.83;;;15.47;;
3993;SDS011;2011;48.238;13.948;2023-08-17T05:41:01;18.00;;;14.53;;
3993;SDS011;2011;48.238;13.948;2023-08-17T05:43:28;17.50;;;14.00;;
3993;SDS011;2011;48.238;13.948;2023-08-17T05:45:56;16.80;;;14.10;;
3993;SDS011;2011;48.238;13.948;2023-08-17T05:48:24;17.80;;;13.33;;
3993;SDS011;2011;48.238;13.948;2023-08-17T05:50:51;19.80;;;15.23;;
3993;SDS011;2011;48.238;13.948;2023-08-17T05:53:18;21.37;;;14.20;;
3993;SDS011;2011;48.238;13.948;2023-08-17T05:55:45;18.10;;;13.70;;
3993;SDS011;2011;48.238;13.948;2023-08-17T05:58:14;18.43;;;13.83;;
3993;SDS011;2011;48.238;13.948;2023-08-17T06:00:41;17.57;;;13.90;;
3993;SDS011;2011;48.238;13.948;2023-08-17T06:03:08;22.80;;;14.80;;
3993;SDS011;2011;48.238;13.948;2023-08-17T06:05:35;28.67;;;14.67;;
3993;SDS011;2011;48.238;13.948;2023-08-17T06:08:03;18.07;;;13.00;;
3993;SDS011;2011;48.238;13.948;2023-08-17T06:10:30;17.73;;;14.00;;
3993;SDS011;2011;48.238;13.948;2023-08-17T06:12:57;17.53;;;13.53;;
3993;SDS011;2011;48.238;13.948;2023-08-17T06:15:26;17.63;;;13.73;;
3993;SDS011;2011;48.238;13.948;2023-08-17T06:17:53;20.83;;;14.00;;
3993;SDS011;2011;48.238;13.948;2023-08-17T06:20:20;20.70;;;14.67;;
3993;SDS011;2011;48.238;13.948;2023-08-17T06:22:47;20.70;;;14.77;;
3993;SDS011;2011;48.238;13.948;2023-08-17T06:25:15;18.10;;;13.70;;
3993;SDS011;2011;48.238;13.948;2023-08-17T06:27:42;18.20;;;13.13;;
3993;SDS011;2011;48.238;13.948;2023-08-17T06:30:10;18.07;;;13.60;;
3993;SDS011;2011;48.238;13.948;2023-08-17T06:32:39;20.43;;;13.30;;
3993;SDS011;2011;48.238;13.948;2023-08-17T06:35:06;30.10;;;12.83;;
3993;SDS011;2011;48.238;13.948;2023-08-17T06:37:34;19.80;;;14.23;;
3993;SDS011;2011;48.238;13.948;2023-08-17T06:40:01;25.50;;;13.83;;
3993;SDS011;2011;48.238;13.948;2023-08-17T06:42:30;23.13;;;13.77;;
3993;SDS011;2011;48.238;13.948;2023-08-17T06:44:57;15.40;;;12.00;;
3993;SDS011;2011;48.238;13.948;2023-08-17T06:47:24;20.67;;;13.17;;
3993;SDS011;2011;48.238;13.948;2023-08-17T06:49:53;22.30;;;13.17;;
3993;SDS011;2011;48.238;13.948;2023-08-17T06:52:22;18.90;;;12.20;;
3993;SDS011;2011;48.238;13.948;2023-08-17T06:54:49;15.93;;;12.33;;
3993;SDS011;2011;48.238;13.948;2023-08-17T06:57:16;23.80;;;12.57;;
3993;SDS011;2011;48.238;13.948;2023-08-17T06:59:43;19.27;;;12.97;;
3993;SDS011;2011;48.238;13.948;2023-08-17T07:02:11;16.80;;;11.50;;
3993;SDS011;2011;48.238;13.948;2023-08-17T07:04:38;25.63;;;13.33;;
3993;SDS011;2011;48.238;13.948;2023-08-17T07:07:07;25.27;;;12.67;;
3993;SDS011;2011;48.238;13.948;2023-08-17T07:09:34;20.93;;;11.50;;
3993;SDS011;2011;48.238;13.948;2023-08-17T07:12:01;15.27;;;10.93;;
3993;SDS011;2011;48.238;13.948;2023-08-17T07:14:28;28.10;;;10.67;;
3993;SDS011;2011;48.238;13.948;2023-08-17T07:16:55;20.30;;;11.17;;
3993;SDS011;2011;48.238;13.948;2023-08-17T07:19:22;20.43;;;11.30;;
3993;SDS011;2011;48.238;13.948;2023-08-17T07:21:49;15.70;;;11.43;;
3993;SDS011;2011;48.238;13.948;2023-08-17T07:24:18;16.50;;;10.13;;
3993;SDS011;2011;48.238;13.948;2023-08-17T07:26:44;14.37;;;9.07;;
3993;SDS011;2011;48.238;13.948;2023-08-17T07:29:12;19.17;;;10.00;;
3993;SDS011;2011;48.238;13.948;2023-08-17T07:31:39;14.80;;;10.37;;
3993;SDS011;2011;48.238;13.948;2023-08-17T07:34:06;16.93;;;9.37;;
3993;SDS011;2011;48.238;13.948;2023-08-17T07:36:33;18.20;;;11.10;;
3993;SDS011;2011;48.238;13.948;2023-08-17T07:39:00;17.10;;;9.63;;
3993;SDS011;2011;48.238;13.948;2023-08-17T07:41:28;13.50;;;11.00;;
3993;SDS011;2011;48.238;13.948;2023-08-17T07:43:55;12.33;;;9.60;;
3993;SDS011;2011;48.238;13.948;2023-08-17T07:46:22;14.73;;;9.80;;
3993;SDS011;2011;48.238;13.948;2023-08-17T07:48:49;14.70;;;10.23;;
3993;SDS011;2011;48.238;13.948;2023-08-17T07:51:16;13.20;;;9.90;;
3993;SDS011;2011;48.238;13.948;2023-08-17T07:53:43;22.90;;;11.37;;
3993;SDS011;2011;48.238;13.948;2023-08-17T07:56:10;15.23;;;10.83;;
3993;SDS011;2011;48.238;13.948;2023-08-17T07:58:39;15.53;;;10.20;;
3993;SDS011;2011;48.238;13.948;2023-08-17T08:01:06;15.13;;;10.47;;
3993;SDS011;2011;48.238;13.948;2023-08-17T08:03:33;22.97;;;10.17;;
3993;SDS011;2011;48.238;13.948;2023-08-17T08:06:00;16.37;;;10.30;;
3993;SDS011;2011;48.238;13.948;2023-08-17T08:08:27;17.93;;;10.30;;
3993;SDS011;2011;48.238;13.948;2023-08-17T08:10:54;14.33;;;10.13;;
3993;SDS011;2011;48.238;13.948;2023-08-17T08:13:21;14.70;;;10.03;;
3993;SDS011;2011;48.238;13.948;2023-08-17T08:15:49;15.93;;;9.73;;
3993;SDS011;2011;48.238;13.948;2023-08-17T08:18:17;17.97;;;9.97;;
3993;SDS011;2011;48.238;13.948;2023-08-17T08:20:44;15.40;;;9.73;;
3993;SDS011;2011;48.238;13.948;2023-08-17T08:23:11;13.37;;;9.63;;
3993;SDS011;2011;48.238;13.948;2023-08-17T08:25:38;26.40;;;9.00;;
3993;SDS011;2011;48.238;13.948;2023-08-17T08:28:05;20.80;;;10.83;;
3993;SDS011;2011;48.238;13.948;2023-08-17T08:30:33;15.30;;;10.20;;
3993;SDS011;2011;48.238;13.948;2023-08-17T08:33:02;16.13;;;11.27;;
3993;SDS011;2011;48.238;13.948;2023-08-17T08:35:29;16.50;;;10.90;;
3993;SDS011;2011;48.238;13.948;2023-08-17T08:37:58;17.37;;;10.27;;
3993;SDS011;2011;48.238;13.948;2023-08-17T08:40:26;18.77;;;8.77;;
3993;SDS011;2011;48.238;13.948;2023-08-17T08:42:55;17.20;;;9.03;;
3993;SDS011;2011;48.238;13.948;2023-08-17T08:45:23;14.63;;;9.20;;
3993;SDS011;2011;48.238;13.948;2023-08-17T08:47:51;18.37;;;11.13;;
3993;SDS011;2011;48.238;13.948;2023-08-17T08:50:20;19.23;;;10.80;;
3993;SDS011;2011;48.238;13.948;2023-08-17T08:52:50;16.30;;;10.20;;
3993;SDS011;2011;48.238;13.948;2023-08-17T08:55:23;13.70;;;10.47;;
3993;SDS011;2011;48.238;13.948;2023-08-17T08:57:52;14.73;;;9.93;;
3993;SDS011;2011;48.238;13.948;2023-08-17T09:00:20;14.60;;;9.70;;
3993;SDS011;2011;48.238;13.948;2023-08-17T09:02:48;17.93;;;9.50;;
3993;SDS011;2011;48.238;13.948;2023-08-17T09:05:16;13.03;;;9.57;;
3993;SDS011;2011;48.238;13.948;2023-08-17T09:07:45;16.70;;;9.60;;
3993;SDS011;2011;48.238;13.948;2023-08-17T09:10:14;23.23;;;9.43;;
3993;SDS011;2011;48.238;13.948;2023-08-17T09:12:43;13.87;;;8.53;;
3993;SDS011;2011;48.238;13.948;2023-08-17T09:15:12;14.30;;;8.00;;
3993;SDS011;2011;48.238;13.948;2023-08-17T09:17:39;14.13;;;8.00;;
3993;SDS011;2011;48.238;13.948;2023-08-17T09:20:06;13.90;;;8.30;;
3993;SDS011;2011;48.238;13.948;2023-08-17T09:22:36;21.90;;;8.00;;
3993;SDS011;2011;48.238;13.948;2023-08-17T09:25:07;14.53;;;7.83;;
3993;SDS011;2011;48.238;13.948;2023-08-17T09:27:35;11.83;;;8.03;;
3993;SDS011;2011;48.238;13.948;2023-08-17T09:30:03;14.80;;;7.53;;
3993;SDS011;2011;48.238;13.948;2023-08-17T09:32:31;13.67;;;8.50;;
3993;SDS011;2011;48.238;13.948;2023-08-17T09:35:00;11.03;;;7.83;;
3993;SDS011;2011;48.238;13.948;2023-08-17T09:37:28;13.83;;;8.07;;
3993;SDS011;2011;48.238;13.948;2023-08-17T09:39:55;11.33;;;8.40;;
3993;SDS011;2011;48.238;13.948;2023-08-17T09:42:23;15.93;;;8.10;;
3993;SDS011;2011;48.238;13.948;2023-08-17T09:44:52;11.37;;;8.10;;
3993;SDS011;2011;48.238;13.948;2023-08-17T09:47:21;18.13;;;8.30;;
3993;SDS011;2011;48.238;13.948;2023-08-17T09:49:49;12.43;;;8.43;;
3993;SDS011;2011;48.238;13.948;2023-08-17T09:52:16;12.50;;;7.67;;
3993;SDS011;2011;48.238;13.948;2023-08-17T09:54:45;10.83;;;7.87;;
3993;SDS011;2011;48.238;13.948;2023-08-17T09:57:12;12.43;;;6.90;;
3993;SDS011;2011;48.238;13.948;2023-08-17T09:59:41;10.77;;;7.03;;
3993;SDS011;2011;48.238;13.948;2023-08-17T10:02:21;11.80;;;7.63;;
3993;SDS011;2011;48.238;13.948;2023-08-17T10:04:51;10.37;;;6.73;;
3993;SDS011;2011;48.238;13.948;2023-08-17T10:07:19;13.43;;;7.47;;
3993;SDS011;2011;48.238;13.948;2023-08-17T10:09:49;12.53;;;7.20;;
3993;SDS011;2011;48.238;13.948;2023-08-17T10:12:23;12.23;;;6.77;;
3993;SDS011;2011;48.238;13.948;2023-08-17T10:14:58;11.10;;;6.60;;
3993;SDS011;2011;48.238;13.948;2023-08-17T10:17:34;9.73;;;6.93;;
3993;SDS011;2011;48.238;13.948;2023-08-17T10:20:08;9.40;;;7.00;;
3993;SDS011;2011;48.238;13.948;2023-08-17T10:22:39;17.00;;;7.70;;
3993;SDS011;2011;48.238;13.948;2023-08-17T10:25:11;11.33;;;7.13;;
3993;SDS011;2011;48.238;13.948;2023-08-17T10:27:38;10.77;;;6.40;;
3993;SDS011;2011;48.238;13.948;2023-08-17T10:30:09;16.43;;;7.23;;
3993;SDS011;2011;48.238;13.948;2023-08-17T10:32:37;11.33;;;7.23;;
3993;SDS011;2011;48.238;13.948;2023-08-17T10:35:06;13.37;;;6.27;;
3993;SDS011;2011;48.238;13.948;2023-08-17T10:37:34;11.33;;;6.93;;
3993;SDS011;2011;48.238;13.948;2023-08-17T10:40:01;14.20;;;5.70;;
3993;SDS011;2011;48.238;13.948;2023-08-17T10:42:30;17.23;;;6.77;;
3993;SDS011;2011;48.238;13.948;2023-08-17T10:44:58;13.23;;;6.80;;
3993;SDS011;2011;48.238;13.948;2023-08-17T10:47:30;11.10;;;6.80;;
3993;SDS011;2011;48.238;13.948;2023-08-17T10:49:58;13.90;;;6.60;;
3993;SDS011;2011;48.238;13.948;2023-08-17T10:52:29;8.83;;;6.30;;
3993;SDS011;2011;48.238;13.948;2023-08-17T10:54:59;13.20;;;6.90;;
3993;SDS011;2011;48.238;13.948;2023-08-17T10:57:32;10.70;;;6.70;;
3993;SDS011;2011;48.238;13.948;2023-08-17T11:02:54;11.57;;;6.47;;
3993;SDS011;2011;48.238;13.948;2023-08-17T11:05:36;15.67;;;6.43;;
3993;SDS011;2011;48.238;13.948;2023-08-17T11:08:04;12.43;;;6.30;;
3993;SDS011;2011;48.238;13.948;2023-08-17T11:10:32;18.43;;;6.37;;
3993;SDS011;2011;48.238;13.948;2023-08-17T11:13:00;9.80;;;6.90;;
3993;SDS011;2011;48.238;13.948;2023-08-17T11:15:34;10.97;;;6.20;;
3993;SDS011;2011;48.238;13.948;2023-08-17T11:18:09;13.17;;;6.73;;
3993;SDS011;2011;48.238;13.948;2023-08-17T11:20:37;10.73;;;7.00;;
3993;SDS011;2011;48.238;13.948;2023-08-17T11:23:05;23.07;;;6.93;;
3993;SDS011;2011;48.238;13.948;2023-08-17T11:25:33;9.40;;;6.53;;
3993;SDS011;2011;48.238;13.948;2023-08-17T11:28:01;12.33;;;6.90;;
3993;SDS011;2011;48.238;13.948;2023-08-17T11:30:28;9.73;;;6.60;;
3993;SDS011;2011;48.238;13.948;2023-08-17T11:32:55;13.10;;;6.83;;
3993;SDS011;2011;48.238;13.948;2023-08-17T11:35:24;9.60;;;6.33;;
3993;SDS011;2011;48.238;13.948;2023-08-17T11:37:51;12.03;;;6.47;;
3993;SDS011;2011;48.238;13.948;2023-08-17T11:40:18;10.87;;;5.83;;
3993;SDS011;2011;48.238;13.948;2023-08-17T11:42:46;14.30;;;7.07;;
3993;SDS011;2011;48.238;13.948;2023-08-17T11:45:14;8.90;;;6.60;;
3993;SDS011;2011;48.238;13.948;2023-08-17T11:47:41;16.13;;;6.90;;
3993;SDS011;2011;48.238;13.948;2023-08-17T11:50:10;10.93;;;7.00;;
3993;SDS011;2011;48.238;13.948;2023-08-17T11:52:39;10.80;;;6.43;;
3993;SDS011;2011;48.238;13.948;2023-08-17T11:55:07;13.30;;;6.70;;
3993;SDS011;2011;48.238;13.948;2023-08-17T11:57:35;13.33;;;6.50;;
3993;SDS011;2011;48.238;13.948;2023-08-17T12:00:03;10.73;;;6.23;;
3993;SDS011;2011;48.238;13.948;2023-08-17T12:02:32;8.47;;;5.80;;
3993;SDS011;2011;48.238;13.948;2023-08-17T12:05:03;12.30;;;5.87;;
3993;SDS011;2011;48.238;13.948;2023-08-17T12:07:31;9.70;;;5.50;;
3993;SDS011;2011;48.238;13.948;2023-08-17T12:10:01;15.97;;;6.23;;
3993;SDS011;2011;48.238;13.948;2023-08-17T12:12:29;11.50;;;6.40;;
3993;SDS011;2011;48.238;13.948;2023-08-17T12:14:57;11.60;;;6.00;;
3993;SDS011;2011;48.238;13.948;2023-08-17T12:17:24;13.60;;;6.20;;
3993;SDS011;2011;48.238;13.948;2023-08-17T12:19:53;16.43;;;6.80;;
3993;SDS011;2011;48.238;13.948;2023-08-17T12:22:23;12.70;;;6.53;;
3993;SDS011;2011;48.238;13.948;2023-08-17T12:24:51;13.57;;;6.40;;
3993;SDS011;2011;48.238;13.948;2023-08-17T12:27:19;19.03;;;6.50;;
3993;SDS011;2011;48.238;13.948;2023-08-17T12:29:48;15.40;;;7.10;;
3993;SDS011;2011;48.238;13.948;2023-08-17T12:32:17;10.97;;;6.77;;
3993;SDS011;2011;48.238;13.948;2023-08-17T12:34:45;9.97;;;5.80;;
3993;SDS011;2011;48.238;13.948;2023-08-17T12:37:12;15.23;;;6.90;;
3993;SDS011;2011;48.238;13.948;2023-08-17T12:39:45;8.60;;;6.17;;
3993;SDS011;2011;48.238;13.948;2023-08-17T12:42:13;11.33;;;6.10;;
3993;SDS011;2011;48.238;13.948;2023-08-17T12:44:42;10.50;;;5.60;;
3993;SDS011;2011;48.238;13.948;2023-08-17T12:47:09;7.60;;;4.97;;
3993;SDS011;2011;48.238;13.948;2023-08-17T12:49:36;7.90;;;5.30;;
3993;SDS011;2011;48.238;13.948;2023-08-17T12:52:03;9.03;;;5.07;;
3993;SDS011;2011;48.238;13.948;2023-08-17T12:54:30;12.00;;;5.90;;
3993;SDS011;2011;48.238;13.948;2023-08-17T12:56:57;8.33;;;5.57;;
3993;SDS011;2011;48.238;13.948;2023-08-17T12:59:25;11.40;;;5.33;;
3993;SDS011;2011;48.238;13.948;2023-08-17T13:01:53;8.40;;;5.43;;
3993;SDS011;2011;48.238;13.948;2023-08-17T13:04:20;8.37;;;5.50;;
3993;SDS011;2011;48.238;13.948;2023-08-17T13:06:47;7.93;;;4.97;;
3993;SDS011;2011;48.238;13.948;2023-08-17T13:09:16;10.43;;;5.43;;
3993;SDS011;2011;48.238;13.948;2023-08-17T13:11:44;8.93;;;5.47;;
3993;SDS011;2011;48.238;13.948;2023-08-17T13:14:11;12.13;;;5.67;;
3993;SDS011;2011;48.238;13.948;2023-08-17T13:16:38;7.87;;;5.00;;
3993;SDS011;2011;48.238;13.948;2023-08-17T13:19:06;8.40;;;5.43;;
3993;SDS011;2011;48.238;13.948;2023-08-17T13:21:33;8.53;;;5.67;;
3993;SDS011;2011;48.238;13.948;2023-08-17T13:24:00;8.80;;;5.00;;
3993;SDS011;2011;48.238;13.948;2023-08-17T13:26:29;9.80;;;5.03;;
3993;SDS011;2011;48.238;13.948;2023-08-17T13:28:56;14.10;;;5.63;;
3993;SDS011;2011;48.238;13.948;2023-08-17T13:31:23;9.97;;;5.50;;
3993;SDS011;2011;48.238;13.948;2023-08-17T13:33:50;8.80;;;5.17;;
3993;SDS011;2011;48.238;13.948;2023-08-17T13:36:18;10.20;;;5.40;;
3993;SDS011;2011;48.238;13.948;2023-08-17T13:38:45;8.20;;;5.30;;
3993;SDS011;2011;48.238;13.948;2023-08-17T13:41:12;15.47;;;5.67;;
3993;SDS011;2011;48.238;13.948;2023-08-17T13:43:39;9.27;;;5.60;;
3993;SDS011;2011;48.238;13.948;2023-08-17T13:46:07;11.80;;;5.97;;
3993;SDS011;2011;48.238;13.948;2023-08-17T13:48:34;13.90;;;5.53;;
3993;SDS011;2011;48.238;13.948;2023-08-17T13:51:01;15.00;;;5.40;;
3993;SDS011;2011;48.238;13.948;2023-08-17T13:53:29;14.53;;;5.93;;
3993;SDS011;2011;48.238;13.948;2023-08-17T13:55:56;15.40;;;6.00;;
3993;SDS011;2011;48.238;13.948;2023-08-17T13:58:23;8.50;;;5.60;;
3993;SDS011;2011;48.238;13.948;2023-08-17T14:00:50;9.50;;;5.43;;
3993;SDS011;2011;48.238;13.948;2023-08-17T14:03:17;11.30;;;5.80;;
3993;SDS011;2011;48.238;13.948;2023-08-17T14:05:44;11.50;;;5.30;;
3993;SDS011;2011;48.238;13.948;2023-08-17T14:08:11;13.70;;;4.50;;
3993;SDS011;2011;48.238;13.948;2023-08-17T14:10:40;16.37;;;4.90;;
3993;SDS011;2011;48.238;13.948;2023-08-17T14:13:07;9.07;;;5.43;;
3993;SDS011;2011;48.238;13.948;2023-08-17T14:15:34;8.77;;;5.20;;
3993;SDS011;2011;48.238;13.948;2023-08-17T14:18:01;13.33;;;5.33;;
3993;SDS011;2011;48.238;13.948;2023-08-17T14:20:28;13.07;;;5.67;;
3993;SDS011;2011;48.238;13.948;2023-08-17T14:22:55;11.77;;;5.47;;
3993;SDS011;2011;48.238;13.948;2023-08-17T14:25:22;10.50;;;5.13;;
3993;SDS011;2011;48.238;13.948;2023-08-17T14:27:51;11.40;;;5.50;;
3993;SDS011;2011;48.238;13.948;2023-08-17T14:30:19;8.27;;;5.13;;
3993;SDS011;2011;48.238;13.948;2023-08-17T14:32:46;9.23;;;4.67;;
3993;SDS011;2011;48.238;13.948;2023-08-17T14:35:13;13.07;;;5.60;;
3993;SDS011;2011;48.238;13.948;2023-08-17T14:37:40;12.13;;;5.00;;
3993;SDS011;2011;48.238;13.948;2023-08-17T14:40:08;8.90;;;5.00;;
3993;SDS011;2011;48.238;13.948;2023-08-17T14:42:36;8.60;;;4.57;;
3993;SDS011;2011;48.238;13.948;2023-08-17T14:45:06;9.40;;;4.47;;
3993;SDS011;2011;48.238;13.948;2023-08-17T14:47:33;7.57;;;4.97;;